MNL weather

Ninoy Aquino International Airport
Manila, Philippines

Public forecast

Using degrees Celsius for public forecast. Weather courtesy of forecast.io.

METAR (pilot weather report)

Retrieved 2019/02/22 09:00 UTC (47 minutes ago):

RPLL 220900Z 11010KT 9999 SCT023 BKN100 29/20 Q1013 NOSIG RMK A2991

TAF (pilot weather forecast)

Retrieved 2019/02/22 06:00 UTC (4 hours ago):

TAF RPLL 220500Z 2206/2312 08006KT 9999 FEW025 TX32/2207Z TN25/2222Z TEMPO 2206/2212 10010KT FEW025 SCT100 TEMPO 2212/2218 00000KT FEW030